sensor_id;sensor_type;location;lat;lon;timestamp;pressure;altitude;pressure_sealevel;temperature;humidity
40838;BME280;29632;49.168;9.848;2022-09-21T00:01:27;97577.72;;;14.31;45.41
40838;BME280;29632;49.168;9.848;2022-09-21T00:04:03;97570.81;;;14.30;45.68
40838;BME280;29632;49.168;9.848;2022-09-21T00:06:32;97572.75;;;14.28;45.49
40838;BME280;29632;49.168;9.848;2022-09-21T00:08:58;97572.91;;;14.27;45.95
40838;BME280;29632;49.168;9.848;2022-09-21T00:11:27;97572.25;;;14.25;46.03
40838;BME280;29632;49.168;9.848;2022-09-21T00:13:55;97572.91;;;14.27;45.64
40838;BME280;29632;49.168;9.848;2022-09-21T00:16:23;97571.25;;;14.26;45.79
40838;BME280;29632;49.168;9.848;2022-09-21T00:18:49;97575.66;;;14.25;45.65
40838;BME280;29632;49.168;9.848;2022-09-21T00:21:16;97573.06;;;14.25;45.84
40838;BME280;29632;49.168;9.848;2022-09-21T00:23:42;97580.09;;;14.25;45.59
40838;BME280;29632;49.168;9.848;2022-09-21T00:26:15;97575.16;;;14.22;45.84
40838;BME280;29632;49.168;9.848;2022-09-21T00:28:42;97567.44;;;14.20;45.78
40838;BME280;29632;49.168;9.848;2022-09-21T00:31:12;97567.72;;;14.17;45.66
40838;BME280;29632;49.168;9.848;2022-09-21T00:33:40;97569.66;;;14.15;45.83
40838;BME280;29632;49.168;9.848;2022-09-21T00:36:10;97570.78;;;14.12;45.96
40838;BME280;29632;49.168;9.848;2022-09-21T00:38:37;97566.81;;;14.08;45.85
40838;BME280;29632;49.168;9.848;2022-09-21T00:41:06;97568.75;;;14.06;45.77
40838;BME280;29632;49.168;9.848;2022-09-21T00:46:44;97570.31;;;13.99;46.00
40838;BME280;29632;49.168;9.848;2022-09-21T00:49:11;97570.44;;;13.97;46.14
40838;BME280;29632;49.168;9.848;2022-09-21T00:51:37;97561.09;;;13.95;45.80
40838;BME280;29632;49.168;9.848;2022-09-21T00:54:17;97558.09;;;13.90;46.16
40838;BME280;29632;49.168;9.848;2022-09-21T00:56:44;97563.34;;;13.90;46.09
40838;BME280;29632;49.168;9.848;2022-09-21T00:59:11;97562.53;;;13.89;45.87
40838;BME280;29632;49.168;9.848;2022-09-21T01:01:38;97568.72;;;13.88;46.07
40838;BME280;29632;49.168;9.848;2022-09-21T01:04:04;97560.84;;;13.88;46.20
40838;BME280;29632;49.168;9.848;2022-09-21T01:06:32;97560.47;;;13.83;46.13
40838;BME280;29632;49.168;9.848;2022-09-21T01:08:59;97566.69;;;13.82;46.00
40838;BME280;29632;49.168;9.848;2022-09-21T01:29:32;97559.03;;;13.61;45.54
40838;BME280;29632;49.168;9.848;2022-09-21T01:35:49;97561.28;;;13.56;45.87
40838;BME280;29632;49.168;9.848;2022-09-21T01:38:48;97566.94;;;13.51;45.95
40838;BME280;29632;49.168;9.848;2022-09-21T01:41:19;97569.84;;;13.48;45.63
40838;BME280;29632;49.168;9.848;2022-09-21T01:43:51;97570.03;;;13.37;45.71
40838;BME280;29632;49.168;9.848;2022-09-21T01:46:21;97565.06;;;13.34;46.14
40838;BME280;29632;49.168;9.848;2022-09-21T01:48:53;97559.97;;;13.32;46.07
40838;BME280;29632;49.168;9.848;2022-09-21T01:51:26;97566.31;;;13.30;46.02
40838;BME280;29632;49.168;9.848;2022-09-21T01:54:09;97565.31;;;13.31;46.24
40838;BME280;29632;49.168;9.848;2022-09-21T01:56:45;97573.31;;;13.29;46.40
40838;BME280;29632;49.168;9.848;2022-09-21T01:59:31;97565.44;;;13.29;46.14
40838;BME280;29632;49.168;9.848;2022-09-21T02:02:08;97566.44;;;13.28;46.21
40838;BME280;29632;49.168;9.848;2022-09-21T02:04:36;97561.88;;;13.30;45.84
40838;BME280;29632;49.168;9.848;2022-09-21T02:07:03;97563.81;;;13.28;45.76
40838;BME280;29632;49.168;9.848;2022-09-21T02:09:29;97561.34;;;13.27;46.19
40838;BME280;29632;49.168;9.848;2022-09-21T02:11:55;97564.25;;;13.23;46.25
40838;BME280;29632;49.168;9.848;2022-09-21T02:14:24;97567.81;;;13.22;45.89
40838;BME280;29632;49.168;9.848;2022-09-21T02:20:24;97568.53;;;13.15;46.37
40838;BME280;29632;49.168;9.848;2022-09-21T02:23:13;97561.63;;;13.14;46.51
40838;BME280;29632;49.168;9.848;2022-09-21T02:26:03;97575.69;;;13.13;46.33
40838;BME280;29632;49.168;9.848;2022-09-21T02:31:39;97566.84;;;13.14;46.37
40838;BME280;29632;49.168;9.848;2022-09-21T02:36:48;97573.22;;;13.11;46.16
40838;BME280;29632;49.168;9.848;2022-09-21T02:39:27;97568.25;;;13.08;46.10
40838;BME280;29632;49.168;9.848;2022-09-21T02:42:11;97568.69;;;13.03;46.39
40838;BME280;29632;49.168;9.848;2022-09-21T02:45:08;97564.97;;;12.96;46.50
40838;BME280;29632;49.168;9.848;2022-09-21T02:47:55;97565.53;;;12.90;46.66
40838;BME280;29632;49.168;9.848;2022-09-21T02:50:30;97572.84;;;12.87;46.63
40838;BME280;29632;49.168;9.848;2022-09-21T02:53:00;97583.03;;;12.90;46.27
40838;BME280;29632;49.168;9.848;2022-09-21T02:55:27;97577.78;;;12.90;46.60
40838;BME280;29632;49.168;9.848;2022-09-21T02:57:55;97576.81;;;12.91;46.13
40838;BME280;29632;49.168;9.848;2022-09-21T03:00:22;97582.16;;;12.89;46.55
40838;BME280;29632;49.168;9.848;2022-09-21T03:02:47;97576.94;;;12.89;46.27
40838;BME280;29632;49.168;9.848;2022-09-21T03:05:14;97577.94;;;12.88;46.38
40838;BME280;29632;49.168;9.848;2022-09-21T03:07:40;97581.50;;;12.87;46.54
40838;BME280;29632;49.168;9.848;2022-09-21T03:10:07;97577.25;;;12.86;46.10
40838;BME280;29632;49.168;9.848;2022-09-21T03:12:33;97580.00;;;12.84;46.17
40838;BME280;29632;49.168;9.848;2022-09-21T03:14:59;97585.50;;;12.81;46.33
40838;BME280;29632;49.168;9.848;2022-09-21T03:17:25;97581.50;;;12.77;46.87
40838;BME280;29632;49.168;9.848;2022-09-21T03:19:52;97584.13;;;12.77;46.21
40838;BME280;29632;49.168;9.848;2022-09-21T03:22:21;97584.25;;;12.76;46.54
40838;BME280;29632;49.168;9.848;2022-09-21T03:24:47;97580.81;;;12.75;46.17
40838;BME280;29632;49.168;9.848;2022-09-21T03:27:15;97583.72;;;12.72;46.38
40838;BME280;29632;49.168;9.848;2022-09-21T03:29:41;97594.31;;;12.71;46.51
40838;BME280;29632;49.168;9.848;2022-09-21T03:32:07;97588.22;;;12.70;46.28
40838;BME280;29632;49.168;9.848;2022-09-21T03:34:33;97589.06;;;12.71;46.54
40838;BME280;29632;49.168;9.848;2022-09-21T03:37:03;97589.22;;;12.69;46.32
40838;BME280;29632;49.168;9.848;2022-09-21T03:39:29;97590.03;;;12.70;46.31
40838;BME280;29632;49.168;9.848;2022-09-21T03:41:55;97587.81;;;12.65;46.60
40838;BME280;29632;49.168;9.848;2022-09-21T03:44:23;97592.34;;;12.63;46.69
40838;BME280;29632;49.168;9.848;2022-09-21T03:46:51;97588.94;;;12.62;46.64
40838;BME280;29632;49.168;9.848;2022-09-21T03:49:17;97596.78;;;12.62;46.16
40838;BME280;29632;49.168;9.848;2022-09-21T03:51:43;97595.94;;;12.62;46.21
40838;BME280;29632;49.168;9.848;2022-09-21T03:54:09;97593.19;;;12.63;46.33
40838;BME280;29632;49.168;9.848;2022-09-21T03:56:35;97592.50;;;12.61;46.34
40838;BME280;29632;49.168;9.848;2022-09-21T03:59:02;97595.28;;;12.60;46.47
40838;BME280;29632;49.168;9.848;2022-09-21T04:01:28;97589.47;;;12.56;46.83
40838;BME280;29632;49.168;9.848;2022-09-21T04:03:54;97587.16;;;12.53;46.54
40838;BME280;29632;49.168;9.848;2022-09-21T04:06:19;97592.38;;;12.53;46.47
40838;BME280;29632;49.168;9.848;2022-09-21T04:08:45;97588.09;;;12.52;46.46
40838;BME280;29632;49.168;9.848;2022-09-21T04:11:15;97593.31;;;12.52;46.48
40838;BME280;29632;49.168;9.848;2022-09-21T04:13:42;97583.00;;;12.51;46.26
40838;BME280;29632;49.168;9.848;2022-09-21T04:16:09;97597.19;;;12.48;46.44
40838;BME280;29632;49.168;9.848;2022-09-21T04:18:36;97590.56;;;12.44;46.36
40838;BME280;29632;49.168;9.848;2022-09-21T04:21:04;97592.59;;;12.40;46.23
40838;BME280;29632;49.168;9.848;2022-09-21T04:23:31;97589.88;;;12.32;46.23
40838;BME280;29632;49.168;9.848;2022-09-21T04:25:57;97593.97;;;12.25;46.74
40838;BME280;29632;49.168;9.848;2022-09-21T04:28:23;97592.19;;;12.25;46.32
40838;BME280;29632;49.168;9.848;2022-09-21T04:30:52;97598.34;;;12.24;46.29
40838;BME280;29632;49.168;9.848;2022-09-21T04:33:19;97601.94;;;12.23;46.60
40838;BME280;29632;49.168;9.848;2022-09-21T04:35:45;97598.78;;;12.20;46.25
40838;BME280;29632;49.168;9.848;2022-09-21T04:38:10;97600.53;;;12.19;46.42
40838;BME280;29632;49.168;9.848;2022-09-21T04:40:38;97592.84;;;12.18;46.38
40838;BME280;29632;49.168;9.848;2022-09-21T04:43:04;97598.06;;;12.18;46.38
40838;BME280;29632;49.168;9.848;2022-09-21T04:45:30;97599.84;;;12.17;46.58
40838;BME280;29632;49.168;9.848;2022-09-21T04:47:56;97601.53;;;12.18;46.59
40838;BME280;29632;49.168;9.848;2022-09-21T04:50:22;97611.13;;;12.18;46.54
40838;BME280;29632;49.168;9.848;2022-09-21T04:52:48;97605.22;;;12.16;46.61
40838;BME280;29632;49.168;9.848;2022-09-21T04:55:14;97607.81;;;12.16;46.60
40838;BME280;29632;49.168;9.848;2022-09-21T04:57:39;97610.19;;;12.19;46.61
40838;BME280;29632;49.168;9.848;2022-09-21T05:00:06;97608.38;;;12.19;46.48
40838;BME280;29632;49.168;9.848;2022-09-21T05:02:32;97612.66;;;12.20;46.45
40838;BME280;29632;49.168;9.848;2022-09-21T05:04:57;97614.31;;;12.21;46.54
40838;BME280;29632;49.168;9.848;2022-09-21T05:07:23;97616.94;;;12.21;46.21
40838;BME280;29632;49.168;9.848;2022-09-21T05:09:49;97621.31;;;12.21;46.36
40838;BME280;29632;49.168;9.848;2022-09-21T05:12:31;97627.63;;;12.18;46.77
40838;BME280;29632;49.168;9.848;2022-09-21T05:14:58;97625.97;;;12.17;46.71
40838;BME280;29632;49.168;9.848;2022-09-21T05:17:25;97634.78;;;12.16;46.48
40838;BME280;29632;49.168;9.848;2022-09-21T05:19:51;97640.94;;;12.15;46.52
40838;BME280;29632;49.168;9.848;2022-09-21T05:22:20;97647.13;;;12.14;46.62
40838;BME280;29632;49.168;9.848;2022-09-21T05:24:46;97644.38;;;12.16;46.53
40838;BME280;29632;49.168;9.848;2022-09-21T05:27:12;97645.91;;;12.18;46.70
40838;BME280;29632;49.168;9.848;2022-09-21T05:29:39;97644.13;;;12.19;46.67
40838;BME280;29632;49.168;9.848;2022-09-21T05:32:24;97652.09;;;12.17;46.50
40838;BME280;29632;49.168;9.848;2022-09-21T05:35:16;97641.50;;;12.19;46.51
40838;BME280;29632;49.168;9.848;2022-09-21T05:38:11;97642.47;;;12.18;47.02
40838;BME280;29632;49.168;9.848;2022-09-21T05:40:40;97647.56;;;12.19;46.86
40838;BME280;29632;49.168;9.848;2022-09-21T05:43:08;97645.66;;;12.21;46.69
40838;BME280;29632;49.168;9.848;2022-09-21T05:45:41;97644.81;;;12.21;46.81
40838;BME280;29632;49.168;9.848;2022-09-21T05:48:29;97646.59;;;12.20;46.82
40838;BME280;29632;49.168;9.848;2022-09-21T05:52:15;97651.13;;;12.18;46.90
40838;BME280;29632;49.168;9.848;2022-09-21T06:00:18;97656.38;;;12.18;47.01
40838;BME280;29632;49.168;9.848;2022-09-21T06:05:39;97653.75;;;12.28;47.04
40838;BME280;29632;49.168;9.848;2022-09-21T06:08:05;97658.59;;;12.33;47.06
40838;BME280;29632;49.168;9.848;2022-09-21T06:10:33;97664.25;;;12.38;47.36
40838;BME280;29632;49.168;9.848;2022-09-21T06:12:59;97656.84;;;12.43;47.50
40838;BME280;29632;49.168;9.848;2022-09-21T06:15:25;97658.09;;;12.49;47.59
40838;BME280;29632;49.168;9.848;2022-09-21T06:17:51;97664.56;;;12.54;47.47
40838;BME280;29632;49.168;9.848;2022-09-21T06:20:17;97663.22;;;12.60;47.66
40838;BME280;29632;49.168;9.848;2022-09-21T06:22:42;97668.69;;;12.66;47.36
40838;BME280;29632;49.168;9.848;2022-09-21T06:25:08;97668.03;;;12.74;47.54
40838;BME280;29632;49.168;9.848;2022-09-21T06:27:34;97666.53;;;12.81;47.42
40838;BME280;29632;49.168;9.848;2022-09-21T06:30:00;97670.50;;;12.85;47.69
40838;BME280;29632;49.168;9.848;2022-09-21T06:32:26;97666.69;;;12.90;47.55
40838;BME280;29632;49.168;9.848;2022-09-21T06:34:52;97659.38;;;12.93;48.01
40838;BME280;29632;49.168;9.848;2022-09-21T06:37:18;97668.34;;;13.00;47.98
40838;BME280;29632;49.168;9.848;2022-09-21T06:39:44;97667.63;;;13.08;47.74
40838;BME280;29632;49.168;9.848;2022-09-21T06:42:10;97664.63;;;13.13;47.91
40838;BME280;29632;49.168;9.848;2022-09-21T06:44:35;97672.31;;;13.14;48.14
40838;BME280;29632;49.168;9.848;2022-09-21T06:47:01;97670.25;;;13.18;47.97
40838;BME280;29632;49.168;9.848;2022-09-21T06:49:27;97670.38;;;13.26;48.00
40838;BME280;29632;49.168;9.848;2022-09-21T06:51:54;97667.09;;;13.34;48.37
40838;BME280;29632;49.168;9.848;2022-09-21T06:54:20;97664.44;;;13.44;48.24
40838;BME280;29632;49.168;9.848;2022-09-21T06:56:46;97667.06;;;13.53;48.04
40838;BME280;29632;49.168;9.848;2022-09-21T06:59:12;97663.47;;;13.64;48.33
40838;BME280;29632;49.168;9.848;2022-09-21T07:01:37;97668.53;;;13.75;48.25
40838;BME280;29632;49.168;9.848;2022-09-21T07:04:03;97664.09;;;13.86;48.39
40838;BME280;29632;49.168;9.848;2022-09-21T07:06:31;97664.06;;;13.95;48.27
40838;BME280;29632;49.168;9.848;2022-09-21T07:08:57;97662.09;;;14.07;48.45
40838;BME280;29632;49.168;9.848;2022-09-21T07:11:23;97664.66;;;14.17;48.51
40838;BME280;29632;49.168;9.848;2022-09-21T07:13:49;97662.94;;;14.26;48.11
40838;BME280;29632;49.168;9.848;2022-09-21T07:16:15;97666.34;;;14.36;48.40
40838;BME280;29632;49.168;9.848;2022-09-21T07:18:41;97674.03;;;14.47;48.54
40838;BME280;29632;49.168;9.848;2022-09-21T07:21:09;97673.13;;;14.57;48.40
40838;BME280;29632;49.168;9.848;2022-09-21T07:23:35;97675.59;;;14.68;48.22
40838;BME280;29632;49.168;9.848;2022-09-21T07:26:11;97682.56;;;14.77;48.27
40838;BME280;29632;49.168;9.848;2022-09-21T07:28:37;97682.47;;;14.87;48.25
40838;BME280;29632;49.168;9.848;2022-09-21T07:31:13;97680.63;;;14.97;48.59
40838;BME280;29632;49.168;9.848;2022-09-21T07:33:40;97679.75;;;15.06;48.38
40838;BME280;29632;49.168;9.848;2022-09-21T07:36:06;97668.47;;;15.14;48.29
40838;BME280;29632;49.168;9.848;2022-09-21T07:38:42;97676.13;;;15.25;48.20
40838;BME280;29632;49.168;9.848;2022-09-21T07:41:12;97674.06;;;15.37;48.22
40838;BME280;29632;49.168;9.848;2022-09-21T07:43:39;97675.63;;;15.48;48.02
40838;BME280;29632;49.168;9.848;2022-09-21T07:46:07;97671.94;;;15.59;48.01
40838;BME280;29632;49.168;9.848;2022-09-21T07:48:33;97677.09;;;15.68;48.04
40838;BME280;29632;49.168;9.848;2022-09-21T07:51:04;97676.22;;;15.78;48.02
40838;BME280;29632;49.168;9.848;2022-09-21T07:53:34;97671.97;;;15.85;48.10
40838;BME280;29632;49.168;9.848;2022-09-21T07:56:07;97676.28;;;15.94;47.96
40838;BME280;29632;49.168;9.848;2022-09-21T07:58:34;97672.56;;;16.05;47.80
40838;BME280;29632;49.168;9.848;2022-09-21T08:01:18;97673.44;;;16.14;47.66
40838;BME280;29632;49.168;9.848;2022-09-21T08:03:44;97676.09;;;16.22;47.73
40838;BME280;29632;49.168;9.848;2022-09-21T08:06:09;97683.69;;;16.33;47.71
40838;BME280;29632;49.168;9.848;2022-09-21T08:08:35;97674.19;;;16.40;47.61
40838;BME280;29632;49.168;9.848;2022-09-21T08:11:06;97678.34;;;16.51;47.67
40838;BME280;29632;49.168;9.848;2022-09-21T08:13:32;97676.22;;;16.55;47.67
40838;BME280;29632;49.168;9.848;2022-09-21T08:16:02;97684.47;;;16.68;47.42
40838;BME280;29632;49.168;9.848;2022-09-21T08:18:28;97678.91;;;16.79;47.44
40838;BME280;29632;49.168;9.848;2022-09-21T08:20:56;97681.25;;;16.91;47.33
40838;BME280;29632;49.168;9.848;2022-09-21T08:23:23;97682.09;;;16.99;47.34
40838;BME280;29632;49.168;9.848;2022-09-21T08:25:50;97688.69;;;17.12;47.34
40838;BME280;29632;49.168;9.848;2022-09-21T08:28:16;97678.00;;;17.22;47.26
40838;BME280;29632;49.168;9.848;2022-09-21T08:30:43;97681.47;;;17.30;46.93
40838;BME280;29632;49.168;9.848;2022-09-21T08:33:09;97682.44;;;17.38;46.99
40838;BME280;29632;49.168;9.848;2022-09-21T08:35:34;97675.22;;;17.48;46.87
40838;BME280;29632;49.168;9.848;2022-09-21T08:38:01;97679.47;;;17.57;46.75
40838;BME280;29632;49.168;9.848;2022-09-21T08:40:27;97680.44;;;17.64;46.60
40838;BME280;29632;49.168;9.848;2022-09-21T08:43:08;97683.56;;;17.68;46.71
40838;BME280;29632;49.168;9.848;2022-09-21T08:45:43;97678.13;;;17.78;46.71
40838;BME280;29632;49.168;9.848;2022-09-21T08:48:19;97673.69;;;17.86;46.36
40838;BME280;29632;49.168;9.848;2022-09-21T08:51:10;97678.44;;;17.91;46.39
40838;BME280;29632;49.168;9.848;2022-09-21T08:53:45;97676.59;;;18.00;46.37
40838;BME280;29632;49.168;9.848;2022-09-21T08:56:14;97672.34;;;18.07;46.25
40838;BME280;29632;49.168;9.848;2022-09-21T08:58:41;97672.28;;;18.15;46.40
40838;BME280;29632;49.168;9.848;2022-09-21T09:01:55;97665.81;;;18.26;46.28
40838;BME280;29632;49.168;9.848;2022-09-21T09:04:43;97676.47;;;18.41;45.83
40838;BME280;29632;49.168;9.848;2022-09-21T09:07:33;97668.38;;;18.51;46.00
40838;BME280;29632;49.168;9.848;2022-09-21T09:15:54;97668.66;;;18.87;45.17
40838;BME280;29632;49.168;9.848;2022-09-21T09:18:50;97661.50;;;18.96;44.91
40838;BME280;29632;49.168;9.848;2022-09-21T09:21:31;97664.09;;;19.04;44.77
40838;BME280;29632;49.168;9.848;2022-09-21T09:27:16;97670.72;;;19.23;44.59
40838;BME280;29632;49.168;9.848;2022-09-21T09:29:54;97667.00;;;19.32;44.63
40838;BME280;29632;49.168;9.848;2022-09-21T09:32:40;97661.66;;;19.40;44.75
40838;BME280;29632;49.168;9.848;2022-09-21T09:35:51;97661.22;;;19.52;44.53
40838;BME280;29632;49.168;9.848;2022-09-21T09:44:27;97660.66;;;19.79;43.88
40838;BME280;29632;49.168;9.848;2022-09-21T09:50:32;97655.84;;;19.98;43.60
40838;BME280;29632;49.168;9.848;2022-09-21T09:53:10;97656.75;;;20.05;43.19
40838;BME280;29632;49.168;9.848;2022-09-21T09:55:53;97655.66;;;20.14;43.12
40838;BME280;29632;49.168;9.848;2022-09-21T09:58:24;97662.13;;;20.27;43.30
40838;BME280;29632;49.168;9.848;2022-09-21T10:00:53;97657.38;;;20.37;43.04
40838;BME280;29632;49.168;9.848;2022-09-21T10:03:25;97655.25;;;20.47;42.75
40838;BME280;29632;49.168;9.848;2022-09-21T10:05:51;97650.69;;;20.56;42.64
40838;BME280;29632;49.168;9.848;2022-09-21T10:10:56;97648.22;;;20.69;42.19
40838;BME280;29632;49.168;9.848;2022-09-21T10:13:30;97644.81;;;20.75;42.04
40838;BME280;29632;49.168;9.848;2022-09-21T10:16:18;97647.53;;;20.82;42.10
40838;BME280;29632;49.168;9.848;2022-09-21T10:18:57;97640.47;;;20.89;42.25
40838;BME280;29632;49.168;9.848;2022-09-21T10:21:34;97641.34;;;20.97;42.06
40838;BME280;29632;49.168;9.848;2022-09-21T10:24:03;97636.75;;;21.05;42.03
40838;BME280;29632;49.168;9.848;2022-09-21T10:26:35;97637.00;;;21.10;41.92
40838;BME280;29632;49.168;9.848;2022-09-21T10:34:33;97621.91;;;21.33;41.15
40838;BME280;29632;49.168;9.848;2022-09-21T10:37:28;97621.97;;;21.39;41.05
40838;BME280;29632;49.168;9.848;2022-09-21T10:39:54;97620.22;;;21.46;40.63
40838;BME280;29632;49.168;9.848;2022-09-21T10:42:20;97614.78;;;21.55;40.28
40838;BME280;29632;49.168;9.848;2022-09-21T10:44:52;97624.22;;;21.64;40.00
40838;BME280;29632;49.168;9.848;2022-09-21T10:47:56;97619.97;;;21.69;39.88
40838;BME280;29632;49.168;9.848;2022-09-21T10:50:35;97615.09;;;21.73;39.81
40838;BME280;29632;49.168;9.848;2022-09-21T10:53:21;97614.13;;;21.81;39.60
40838;BME280;29632;49.168;9.848;2022-09-21T10:59:21;97611.00;;;22.05;39.48
40838;BME280;29632;49.168;9.848;2022-09-21T11:01:51;97606.34;;;22.14;39.30
40838;BME280;29632;49.168;9.848;2022-09-21T11:07:19;97613.56;;;22.27;39.29
40838;BME280;29632;49.168;9.848;2022-09-21T11:12:59;97623.81;;;22.43;38.89
40838;BME280;29632;49.168;9.848;2022-09-21T11:16:01;97619.34;;;22.44;38.70
40838;BME280;29632;49.168;9.848;2022-09-21T11:24:58;97610.56;;;22.50;38.00
40838;BME280;29632;49.168;9.848;2022-09-21T11:27:35;97615.47;;;22.53;37.98
40838;BME280;29632;49.168;9.848;2022-09-21T11:30:13;97616.47;;;22.52;37.80
40838;BME280;29632;49.168;9.848;2022-09-21T11:36:10;97613.03;;;22.58;37.86
40838;BME280;29632;49.168;9.848;2022-09-21T11:47:38;97603.84;;;22.54;37.02
40838;BME280;29632;49.168;9.848;2022-09-21T11:53:41;97598.75;;;22.53;37.27
40838;BME280;29632;49.168;9.848;2022-09-21T11:56:26;97593.22;;;22.54;36.67
40838;BME280;29632;49.168;9.848;2022-09-21T12:05:08;97597.13;;;22.58;36.34
40838;BME280;29632;49.168;9.848;2022-09-21T12:11:38;97585.09;;;22.69;36.00
40838;BME280;29632;49.168;9.848;2022-09-21T12:21:00;97591.84;;;22.85;35.54
40838;BME280;29632;49.168;9.848;2022-09-21T12:23:45;97586.75;;;22.90;35.43
40838;BME280;29632;49.168;9.848;2022-09-21T12:26:21;97582.69;;;22.94;35.19
40838;BME280;29632;49.168;9.848;2022-09-21T12:29:00;97582.44;;;22.96;35.00
40838;BME280;29632;49.168;9.848;2022-09-21T12:35:01;97582.44;;;22.96;34.99
40838;BME280;29632;49.168;9.848;2022-09-21T12:37:58;97575.31;;;22.96;35.17
40838;BME280;29632;49.168;9.848;2022-09-21T12:46:42;97566.72;;;23.01;34.21
40838;BME280;29632;49.168;9.848;2022-09-21T12:49:20;97566.97;;;23.06;34.14
40838;BME280;29632;49.168;9.848;2022-09-21T12:51:53;97563.50;;;23.12;34.31
40838;BME280;29632;49.168;9.848;2022-09-21T13:00:30;97566.34;;;23.31;33.47
40838;BME280;29632;49.168;9.848;2022-09-21T13:03:24;97561.00;;;23.37;33.79
40838;BME280;29632;49.168;9.848;2022-09-21T13:06:44;97560.19;;;23.44;33.52
40838;BME280;29632;49.168;9.848;2022-09-21T13:09:15;97558.13;;;23.52;33.63
40838;BME280;29632;49.168;9.848;2022-09-21T13:14:47;97553.00;;;23.64;33.41
40838;BME280;29632;49.168;9.848;2022-09-21T13:17:28;97554.00;;;23.70;33.23
40838;BME280;29632;49.168;9.848;2022-09-21T13:20:04;97557.25;;;23.79;33.07
40838;BME280;29632;49.168;9.848;2022-09-21T13:22:34;97553.38;;;23.88;33.02
40838;BME280;29632;49.168;9.848;2022-09-21T13:25:18;97558.47;;;23.96;32.35
40838;BME280;29632;49.168;9.848;2022-09-21T13:38:23;97548.13;;;24.90;31.84
40838;BME280;29632;49.168;9.848;2022-09-21T13:43:47;97547.66;;;24.93;31.82
40838;BME280;29632;49.168;9.848;2022-09-21T13:46:51;97535.44;;;25.36;31.34
40838;BME280;29632;49.168;9.848;2022-09-21T13:49:47;97536.19;;;25.80;30.83
40838;BME280;29632;49.168;9.848;2022-09-21T13:54:48;97533.97;;;26.14;30.23
40838;BME280;29632;49.168;9.848;2022-09-21T13:57:38;97534.72;;;26.03;29.93
40838;BME280;29632;49.168;9.848;2022-09-21T14:02:45;97536.06;;;25.93;30.07
40838;BME280;29632;49.168;9.848;2022-09-21T14:05:44;97530.88;;;25.80;30.43
40838;BME280;29632;49.168;9.848;2022-09-21T14:10:54;97522.94;;;25.55;30.34
40838;BME280;29632;49.168;9.848;2022-09-21T14:13:36;97524.84;;;25.48;30.42
40838;BME280;29632;49.168;9.848;2022-09-21T14:24:37;97507.25;;;25.21;30.81
40838;BME280;29632;49.168;9.848;2022-09-21T14:32:29;97515.97;;;25.10;30.54
40838;BME280;29632;49.168;9.848;2022-09-21T14:35:07;97510.69;;;25.03;30.64
40838;BME280;29632;49.168;9.848;2022-09-21T14:37:45;97517.50;;;24.99;30.31
40838;BME280;29632;49.168;9.848;2022-09-21T14:40:26;97506.91;;;24.93;30.58
40838;BME280;29632;49.168;9.848;2022-09-21T14:42:57;97516.53;;;24.94;30.55
40838;BME280;29632;49.168;9.848;2022-09-21T14:48:58;97513.75;;;24.82;30.55
40838;BME280;29632;49.168;9.848;2022-09-21T14:54:33;97501.28;;;24.76;30.75
40838;BME280;29632;49.168;9.848;2022-09-21T15:00:21;97489.13;;;24.61;30.40
40838;BME280;29632;49.168;9.848;2022-09-21T15:13:45;97492.19;;;24.26;31.13
40838;BME280;29632;49.168;9.848;2022-09-21T15:16:30;97489.34;;;24.21;30.86
40838;BME280;29632;49.168;9.848;2022-09-21T15:21:50;97477.72;;;24.16;31.04
40838;BME280;29632;49.168;9.848;2022-09-21T15:24:32;97481.22;;;24.09;31.05
40838;BME280;29632;49.168;9.848;2022-09-21T15:27:15;97483.50;;;24.06;31.00
40838;BME280;29632;49.168;9.848;2022-09-21T15:29:53;97490.50;;;24.00;30.45
40838;BME280;29632;49.168;9.848;2022-09-21T15:32:45;97485.66;;;23.90;30.34
40838;BME280;29632;49.168;9.848;2022-09-21T15:35:23;97484.63;;;23.85;30.48
40838;BME280;29632;49.168;9.848;2022-09-21T15:37:51;97481.56;;;23.81;30.78
40838;BME280;29632;49.168;9.848;2022-09-21T15:40:26;97483.00;;;23.77;30.40
40838;BME280;29632;49.168;9.848;2022-09-21T15:45:59;97483.25;;;23.62;30.95
40838;BME280;29632;49.168;9.848;2022-09-21T15:48:32;97484.50;;;23.60;30.63
40838;BME280;29632;49.168;9.848;2022-09-21T15:53:54;97472.88;;;23.47;30.53
40838;BME280;29632;49.168;9.848;2022-09-21T15:56:26;97471.44;;;23.45;30.39
40838;BME280;29632;49.168;9.848;2022-09-21T15:59:01;97479.88;;;23.42;30.32
40838;BME280;29632;49.168;9.848;2022-09-21T16:01:39;97475.16;;;23.37;30.56
40838;BME280;29632;49.168;9.848;2022-09-21T16:04:17;97478.63;;;23.31;30.60
40838;BME280;29632;49.168;9.848;2022-09-21T16:06:56;97477.63;;;23.25;30.58
40838;BME280;29632;49.168;9.848;2022-09-21T16:11:49;97466.00;;;23.13;30.46
40838;BME280;29632;49.168;9.848;2022-09-21T16:14:17;97469.50;;;23.07;30.99
40838;BME280;29632;49.168;9.848;2022-09-21T16:24:57;97483.59;;;22.80;31.14
40838;BME280;29632;49.168;9.848;2022-09-21T16:27:26;97486.06;;;22.75;31.44
40838;BME280;29632;49.168;9.848;2022-09-21T16:29:53;97485.84;;;22.70;31.14
40838;BME280;29632;49.168;9.848;2022-09-21T16:32:31;97487.47;;;22.58;31.21
40838;BME280;29632;49.168;9.848;2022-09-21T16:35:26;97492.38;;;22.48;31.32
40838;BME280;29632;49.168;9.848;2022-09-21T16:37:59;97489.50;;;22.42;31.39
40838;BME280;29632;49.168;9.848;2022-09-21T16:40:26;97487.44;;;22.38;31.75
40838;BME280;29632;49.168;9.848;2022-09-21T16:42:53;97493.38;;;22.33;32.43
40838;BME280;29632;49.168;9.848;2022-09-21T16:45:38;97493.91;;;22.22;32.77
40838;BME280;29632;49.168;9.848;2022-09-21T16:48:03;97493.91;;;22.15;32.90
40838;BME280;29632;49.168;9.848;2022-09-21T16:50:32;97500.22;;;22.08;32.67
40838;BME280;29632;49.168;9.848;2022-09-21T16:52:58;97506.28;;;22.01;33.03
40838;BME280;29632;49.168;9.848;2022-09-21T16:55:23;97495.47;;;21.96;33.27
40838;BME280;29632;49.168;9.848;2022-09-21T16:57:49;97504.84;;;21.92;33.47
40838;BME280;29632;49.168;9.848;2022-09-21T17:00:16;97496.47;;;21.88;33.43